sensor_id;sensor_type;location;lat;lon;timestamp;P1;durP1;ratioP1;P2;durP2;ratioP2
58581;SDS011;44361;51.476;5.700;2023-07-31T00:01:04;22.98;;;6.97;;
58581;SDS011;44361;51.476;5.700;2023-07-31T00:03:30;28.10;;;7.22;;
58581;SDS011;44361;51.476;5.700;2023-07-31T00:05:55;20.55;;;6.60;;
58581;SDS011;44361;51.476;5.700;2023-07-31T00:08:21;27.75;;;7.38;;
58581;SDS011;44361;51.476;5.700;2023-07-31T00:10:47;27.80;;;7.32;;
58581;SDS011;44361;51.476;5.700;2023-07-31T00:13:15;21.52;;;6.75;;
58581;SDS011;44361;51.476;5.700;2023-07-31T00:15:41;23.55;;;6.35;;
58581;SDS011;44361;51.476;5.700;2023-07-31T00:18:06;26.45;;;6.65;;
58581;SDS011;44361;51.476;5.700;2023-07-31T00:20:32;29.83;;;6.82;;
58581;SDS011;44361;51.476;5.700;2023-07-31T00:22:57;22.05;;;6.32;;
58581;SDS011;44361;51.476;5.700;2023-07-31T00:25:23;22.38;;;5.97;;
58581;SDS011;44361;51.476;5.700;2023-07-31T00:27:48;29.70;;;6.22;;
58581;SDS011;44361;51.476;5.700;2023-07-31T00:30:14;22.98;;;5.78;;
58581;SDS011;44361;51.476;5.700;2023-07-31T00:32:39;23.23;;;6.63;;
58581;SDS011;44361;51.476;5.700;2023-07-31T00:35:05;23.42;;;5.43;;
58581;SDS011;44361;51.476;5.700;2023-07-31T00:37:31;21.92;;;5.93;;
58581;SDS011;44361;51.476;5.700;2023-07-31T00:39:56;19.02;;;5.68;;
58581;SDS011;44361;51.476;5.700;2023-07-31T00:42:22;24.35;;;5.55;;
58581;SDS011;44361;51.476;5.700;2023-07-31T00:44:48;26.25;;;5.60;;
58581;SDS011;44361;51.476;5.700;2023-07-31T00:47:13;17.90;;;4.97;;
58581;SDS011;44361;51.476;5.700;2023-07-31T00:49:39;17.40;;;5.07;;
58581;SDS011;44361;51.476;5.700;2023-07-31T00:52:05;18.08;;;5.78;;
58581;SDS011;44361;51.476;5.700;2023-07-31T00:54:31;20.50;;;5.75;;
58581;SDS011;44361;51.476;5.700;2023-07-31T00:56:56;23.63;;;5.97;;
58581;SDS011;44361;51.476;5.700;2023-07-31T00:59:22;21.25;;;5.47;;
58581;SDS011;44361;51.476;5.700;2023-07-31T01:01:48;18.73;;;5.00;;
58581;SDS011;44361;51.476;5.700;2023-07-31T01:04:14;21.90;;;5.93;;
58581;SDS011;44361;51.476;5.700;2023-07-31T01:06:56;19.25;;;5.13;;
58581;SDS011;44361;51.476;5.700;2023-07-31T01:09:45;17.95;;;4.72;;
58581;SDS011;44361;51.476;5.700;2023-07-31T01:12:17;20.33;;;5.10;;
58581;SDS011;44361;51.476;5.700;2023-07-31T01:14:52;13.70;;;4.55;;
58581;SDS011;44361;51.476;5.700;2023-07-31T01:17:30;21.20;;;5.00;;
58581;SDS011;44361;51.476;5.700;2023-07-31T01:19:55;17.25;;;5.53;;
58581;SDS011;44361;51.476;5.700;2023-07-31T01:22:30;20.23;;;5.22;;
58581;SDS011;44361;51.476;5.700;2023-07-31T01:27:37;13.65;;;4.63;;
58581;SDS011;44361;51.476;5.700;2023-07-31T01:30:10;23.08;;;4.10;;
58581;SDS011;44361;51.476;5.700;2023-07-31T01:32:42;22.17;;;4.80;;
58581;SDS011;44361;51.476;5.700;2023-07-31T01:35:08;18.85;;;4.32;;
58581;SDS011;44361;51.476;5.700;2023-07-31T01:37:34;13.80;;;4.97;;
58581;SDS011;44361;51.476;5.700;2023-07-31T01:40:00;19.95;;;4.68;;
58581;SDS011;44361;51.476;5.700;2023-07-31T01:42:26;15.38;;;4.40;;
58581;SDS011;44361;51.476;5.700;2023-07-31T01:44:51;15.25;;;4.78;;
58581;SDS011;44361;51.476;5.700;2023-07-31T01:47:17;15.15;;;5.35;;
58581;SDS011;44361;51.476;5.700;2023-07-31T01:49:42;19.95;;;5.05;;
58581;SDS011;44361;51.476;5.700;2023-07-31T01:52:08;20.60;;;5.78;;
58581;SDS011;44361;51.476;5.700;2023-07-31T01:54:33;25.55;;;4.82;;
58581;SDS011;44361;51.476;5.700;2023-07-31T01:56:59;24.52;;;4.40;;
58581;SDS011;44361;51.476;5.700;2023-07-31T01:59:24;15.00;;;4.63;;
58581;SDS011;44361;51.476;5.700;2023-07-31T02:01:50;20.35;;;5.03;;
58581;SDS011;44361;51.476;5.700;2023-07-31T02:04:16;12.25;;;4.30;;
58581;SDS011;44361;51.476;5.700;2023-07-31T02:06:41;14.40;;;4.72;;
58581;SDS011;44361;51.476;5.700;2023-07-31T02:09:07;13.90;;;5.13;;
58581;SDS011;44361;51.476;5.700;2023-07-31T02:11:32;13.80;;;5.13;;
58581;SDS011;44361;51.476;5.700;2023-07-31T02:13:58;24.15;;;5.50;;
58581;SDS011;44361;51.476;5.700;2023-07-31T02:16:23;18.98;;;5.13;;
58581;SDS011;44361;51.476;5.700;2023-07-31T02:18:49;18.52;;;4.75;;
58581;SDS011;44361;51.476;5.700;2023-07-31T02:21:14;15.07;;;4.30;;
58581;SDS011;44361;51.476;5.700;2023-07-31T02:23:40;15.52;;;5.15;;
58581;SDS011;44361;51.476;5.700;2023-07-31T02:26:05;15.05;;;5.10;;
58581;SDS011;44361;51.476;5.700;2023-07-31T02:28:31;18.23;;;5.18;;
58581;SDS011;44361;51.476;5.700;2023-07-31T02:30:56;20.95;;;5.50;;
58581;SDS011;44361;51.476;5.700;2023-07-31T02:33:22;19.77;;;4.88;;
58581;SDS011;44361;51.476;5.700;2023-07-31T02:35:47;18.33;;;5.82;;
58581;SDS011;44361;51.476;5.700;2023-07-31T02:38:13;14.35;;;4.63;;
58581;SDS011;44361;51.476;5.700;2023-07-31T02:40:39;19.25;;;5.13;;
58581;SDS011;44361;51.476;5.700;2023-07-31T02:43:06;15.40;;;4.75;;
58581;SDS011;44361;51.476;5.700;2023-07-31T02:45:32;23.95;;;4.53;;
58581;SDS011;44361;51.476;5.700;2023-07-31T02:47:57;15.40;;;5.32;;
58581;SDS011;44361;51.476;5.700;2023-07-31T02:50:23;17.00;;;5.47;;
58581;SDS011;44361;51.476;5.700;2023-07-31T02:52:48;26.23;;;5.10;;
58581;SDS011;44361;51.476;5.700;2023-07-31T02:55:14;16.33;;;4.68;;
58581;SDS011;44361;51.476;5.700;2023-07-31T02:57:40;16.58;;;4.88;;
58581;SDS011;44361;51.476;5.700;2023-07-31T03:00:05;13.05;;;4.60;;
58581;SDS011;44361;51.476;5.700;2023-07-31T03:02:31;18.67;;;5.20;;
58581;SDS011;44361;51.476;5.700;2023-07-31T03:04:57;19.70;;;5.22;;
58581;SDS011;44361;51.476;5.700;2023-07-31T03:07:23;21.88;;;5.25;;
58581;SDS011;44361;51.476;5.700;2023-07-31T03:09:48;19.60;;;5.57;;
58581;SDS011;44361;51.476;5.700;2023-07-31T03:12:14;18.25;;;5.38;;
58581;SDS011;44361;51.476;5.700;2023-07-31T03:14:40;18.23;;;5.05;;
58581;SDS011;44361;51.476;5.700;2023-07-31T03:17:05;17.17;;;4.25;;
58581;SDS011;44361;51.476;5.700;2023-07-31T03:19:31;14.93;;;5.40;;
58581;SDS011;44361;51.476;5.700;2023-07-31T03:21:57;15.48;;;4.68;;
58581;SDS011;44361;51.476;5.700;2023-07-31T03:24:23;18.17;;;4.65;;
58581;SDS011;44361;51.476;5.700;2023-07-31T03:26:49;17.50;;;4.90;;
58581;SDS011;44361;51.476;5.700;2023-07-31T03:29:14;13.50;;;5.03;;
58581;SDS011;44361;51.476;5.700;2023-07-31T03:31:40;17.85;;;4.63;;
58581;SDS011;44361;51.476;5.700;2023-07-31T03:34:05;13.20;;;4.68;;
58581;SDS011;44361;51.476;5.700;2023-07-31T03:36:31;19.35;;;4.72;;
58581;SDS011;44361;51.476;5.700;2023-07-31T03:38:57;16.30;;;4.38;;
58581;SDS011;44361;51.476;5.700;2023-07-31T03:41:22;15.45;;;4.68;;
58581;SDS011;44361;51.476;5.700;2023-07-31T03:43:49;15.10;;;4.55;;
58581;SDS011;44361;51.476;5.700;2023-07-31T03:46:16;21.67;;;4.90;;
58581;SDS011;44361;51.476;5.700;2023-07-31T03:48:42;15.10;;;4.38;;
58581;SDS011;44361;51.476;5.700;2023-07-31T03:51:08;17.23;;;5.05;;
58581;SDS011;44361;51.476;5.700;2023-07-31T03:53:33;17.10;;;5.13;;
58581;SDS011;44361;51.476;5.700;2023-07-31T03:55:59;17.77;;;4.90;;
58581;SDS011;44361;51.476;5.700;2023-07-31T03:58:24;18.65;;;4.65;;
58581;SDS011;44361;51.476;5.700;2023-07-31T04:00:50;16.55;;;4.57;;
58581;SDS011;44361;51.476;5.700;2023-07-31T04:03:15;19.00;;;5.75;;
58581;SDS011;44361;51.476;5.700;2023-07-31T04:05:41;23.88;;;5.60;;
58581;SDS011;44361;51.476;5.700;2023-07-31T04:08:07;15.63;;;4.68;;
58581;SDS011;44361;51.476;5.700;2023-07-31T04:10:33;17.08;;;4.78;;
58581;SDS011;44361;51.476;5.700;2023-07-31T04:12:59;14.75;;;4.22;;
58581;SDS011;44361;51.476;5.700;2023-07-31T04:15:25;16.60;;;5.15;;
58581;SDS011;44361;51.476;5.700;2023-07-31T04:17:51;18.52;;;4.63;;
58581;SDS011;44361;51.476;5.700;2023-07-31T04:20:17;14.93;;;4.20;;
58581;SDS011;44361;51.476;5.700;2023-07-31T04:22:42;19.80;;;5.07;;
58581;SDS011;44361;51.476;5.700;2023-07-31T04:25:08;16.80;;;4.53;;
58581;SDS011;44361;51.476;5.700;2023-07-31T04:27:33;15.18;;;4.90;;
58581;SDS011;44361;51.476;5.700;2023-07-31T04:29:59;13.50;;;4.88;;
58581;SDS011;44361;51.476;5.700;2023-07-31T04:32:25;16.00;;;4.47;;
58581;SDS011;44361;51.476;5.700;2023-07-31T04:34:50;21.73;;;5.47;;
58581;SDS011;44361;51.476;5.700;2023-07-31T04:37:16;18.13;;;5.13;;
58581;SDS011;44361;51.476;5.700;2023-07-31T04:39:41;20.17;;;4.82;;
58581;SDS011;44361;51.476;5.700;2023-07-31T04:42:07;11.32;;;4.07;;
58581;SDS011;44361;51.476;5.700;2023-07-31T04:44:32;21.13;;;5.25;;
58581;SDS011;44361;51.476;5.700;2023-07-31T04:46:58;18.30;;;4.82;;
58581;SDS011;44361;51.476;5.700;2023-07-31T04:49:23;23.40;;;5.22;;
58581;SDS011;44361;51.476;5.700;2023-07-31T04:51:49;11.90;;;3.97;;
58581;SDS011;44361;51.476;5.700;2023-07-31T04:54:15;12.75;;;4.45;;
58581;SDS011;44361;51.476;5.700;2023-07-31T04:56:40;14.10;;;5.32;;
58581;SDS011;44361;51.476;5.700;2023-07-31T04:59:06;16.35;;;4.78;;
58581;SDS011;44361;51.476;5.700;2023-07-31T05:01:32;15.80;;;4.90;;
58581;SDS011;44361;51.476;5.700;2023-07-31T05:03:57;16.23;;;4.93;;
58581;SDS011;44361;51.476;5.700;2023-07-31T05:06:23;10.18;;;4.78;;
58581;SDS011;44361;51.476;5.700;2023-07-31T05:08:48;18.92;;;5.40;;
58581;SDS011;44361;51.476;5.700;2023-07-31T05:11:14;16.23;;;5.47;;
58581;SDS011;44361;51.476;5.700;2023-07-31T05:13:39;13.45;;;5.20;;
58581;SDS011;44361;51.476;5.700;2023-07-31T05:16:05;11.48;;;4.10;;
58581;SDS011;44361;51.476;5.700;2023-07-31T05:18:30;11.93;;;4.85;;
58581;SDS011;44361;51.476;5.700;2023-07-31T05:20:56;12.38;;;4.72;;
58581;SDS011;44361;51.476;5.700;2023-07-31T05:23:21;20.95;;;5.95;;
58581;SDS011;44361;51.476;5.700;2023-07-31T05:25:47;9.68;;;4.68;;
58581;SDS011;44361;51.476;5.700;2023-07-31T05:28:12;15.95;;;5.30;;
58581;SDS011;44361;51.476;5.700;2023-07-31T05:30:38;11.73;;;4.20;;
58581;SDS011;44361;51.476;5.700;2023-07-31T05:33:03;11.55;;;4.97;;
58581;SDS011;44361;51.476;5.700;2023-07-31T05:35:29;9.98;;;4.30;;
58581;SDS011;44361;51.476;5.700;2023-07-31T05:37:55;9.70;;;4.45;;
58581;SDS011;44361;51.476;5.700;2023-07-31T05:40:20;10.23;;;4.78;;
58581;SDS011;44361;51.476;5.700;2023-07-31T05:42:46;7.68;;;4.22;;
58581;SDS011;44361;51.476;5.700;2023-07-31T05:45:11;9.25;;;3.97;;
58581;SDS011;44361;51.476;5.700;2023-07-31T05:47:38;8.65;;;4.00;;
58581;SDS011;44361;51.476;5.700;2023-07-31T05:50:04;11.10;;;4.45;;
58581;SDS011;44361;51.476;5.700;2023-07-31T05:52:30;9.48;;;4.63;;
58581;SDS011;44361;51.476;5.700;2023-07-31T05:54:55;8.65;;;4.18;;
58581;SDS011;44361;51.476;5.700;2023-07-31T05:57:21;17.70;;;4.78;;
58581;SDS011;44361;51.476;5.700;2023-07-31T05:59:46;10.52;;;4.75;;
58581;SDS011;44361;51.476;5.700;2023-07-31T06:02:12;10.73;;;5.40;;
58581;SDS011;44361;51.476;5.700;2023-07-31T06:04:38;11.93;;;5.53;;
58581;SDS011;44361;51.476;5.700;2023-07-31T06:07:03;12.73;;;5.35;;
58581;SDS011;44361;51.476;5.700;2023-07-31T06:09:29;18.17;;;6.25;;
58581;SDS011;44361;51.476;5.700;2023-07-31T06:11:55;14.98;;;6.00;;
58581;SDS011;44361;51.476;5.700;2023-07-31T06:14:20;11.82;;;5.68;;
58581;SDS011;44361;51.476;5.700;2023-07-31T06:16:46;14.95;;;6.05;;
58581;SDS011;44361;51.476;5.700;2023-07-31T06:19:11;9.25;;;5.40;;
58581;SDS011;44361;51.476;5.700;2023-07-31T06:21:37;14.57;;;5.13;;
58581;SDS011;44361;51.476;5.700;2023-07-31T06:24:04;10.20;;;5.05;;
58581;SDS011;44361;51.476;5.700;2023-07-31T06:26:32;10.73;;;5.03;;
58581;SDS011;44361;51.476;5.700;2023-07-31T06:28:58;11.77;;;5.68;;
58581;SDS011;44361;51.476;5.700;2023-07-31T06:31:23;10.95;;;5.50;;
58581;SDS011;44361;51.476;5.700;2023-07-31T06:33:49;13.75;;;5.22;;
58581;SDS011;44361;51.476;5.700;2023-07-31T06:36:16;17.80;;;6.20;;
58581;SDS011;44361;51.476;5.700;2023-07-31T06:38:41;12.07;;;6.10;;
58581;SDS011;44361;51.476;5.700;2023-07-31T06:41:07;16.85;;;6.70;;
58581;SDS011;44361;51.476;5.700;2023-07-31T06:43:33;13.30;;;5.93;;
58581;SDS011;44361;51.476;5.700;2023-07-31T06:45:59;11.45;;;5.38;;
58581;SDS011;44361;51.476;5.700;2023-07-31T06:48:32;11.80;;;5.82;;
58581;SDS011;44361;51.476;5.700;2023-07-31T06:50:58;13.00;;;6.00;;
58581;SDS011;44361;51.476;5.700;2023-07-31T06:53:23;10.38;;;5.07;;
58581;SDS011;44361;51.476;5.700;2023-07-31T06:55:49;8.63;;;5.20;;
58581;SDS011;44361;51.476;5.700;2023-07-31T06:58:16;8.18;;;5.20;;
58581;SDS011;44361;51.476;5.700;2023-07-31T07:00:42;10.45;;;5.20;;
58581;SDS011;44361;51.476;5.700;2023-07-31T07:03:08;10.30;;;5.18;;
58581;SDS011;44361;51.476;5.700;2023-07-31T07:05:33;10.60;;;5.53;;
58581;SDS011;44361;51.476;5.700;2023-07-31T07:07:59;11.20;;;5.25;;
58581;SDS011;44361;51.476;5.700;2023-07-31T07:10:25;8.93;;;4.63;;
58581;SDS011;44361;51.476;5.700;2023-07-31T07:12:50;12.15;;;5.20;;
58581;SDS011;44361;51.476;5.700;2023-07-31T07:15:16;9.25;;;5.07;;
58581;SDS011;44361;51.476;5.700;2023-07-31T07:17:41;9.93;;;5.22;;
58581;SDS011;44361;51.476;5.700;2023-07-31T07:20:08;11.57;;;5.10;;
58581;SDS011;44361;51.476;5.700;2023-07-31T07:22:34;10.48;;;5.00;;
58581;SDS011;44361;51.476;5.700;2023-07-31T07:24:59;10.43;;;4.93;;
58581;SDS011;44361;51.476;5.700;2023-07-31T07:27:25;10.27;;;5.15;;
58581;SDS011;44361;51.476;5.700;2023-07-31T07:29:51;7.80;;;4.70;;
58581;SDS011;44361;51.476;5.700;2023-07-31T07:32:19;9.35;;;5.22;;
58581;SDS011;44361;51.476;5.700;2023-07-31T07:34:46;9.63;;;4.35;;
58581;SDS011;44361;51.476;5.700;2023-07-31T07:37:12;8.35;;;4.88;;
58581;SDS011;44361;51.476;5.700;2023-07-31T07:39:38;7.65;;;3.90;;
58581;SDS011;44361;51.476;5.700;2023-07-31T07:42:03;10.85;;;4.13;;
58581;SDS011;44361;51.476;5.700;2023-07-31T07:44:29;9.18;;;4.53;;
58581;SDS011;44361;51.476;5.700;2023-07-31T07:46:54;7.95;;;4.00;;
58581;SDS011;44361;51.476;5.700;2023-07-31T07:49:20;6.70;;;3.95;;
58581;SDS011;44361;51.476;5.700;2023-07-31T07:51:47;7.57;;;3.92;;
58581;SDS011;44361;51.476;5.700;2023-07-31T07:54:13;6.53;;;3.95;;
58581;SDS011;44361;51.476;5.700;2023-07-31T07:56:39;6.22;;;3.90;;
58581;SDS011;44361;51.476;5.700;2023-07-31T07:59:05;10.68;;;4.68;;
58581;SDS011;44361;51.476;5.700;2023-07-31T08:01:30;7.15;;;4.57;;
58581;SDS011;44361;51.476;5.700;2023-07-31T08:03:56;12.68;;;5.38;;
58581;SDS011;44361;51.476;5.700;2023-07-31T08:06:21;10.88;;;4.93;;
58581;SDS011;44361;51.476;5.700;2023-07-31T08:08:47;9.05;;;4.78;;
58581;SDS011;44361;51.476;5.700;2023-07-31T08:11:13;12.77;;;5.38;;
58581;SDS011;44361;51.476;5.700;2023-07-31T08:13:38;11.02;;;5.38;;
58581;SDS011;44361;51.476;5.700;2023-07-31T08:16:04;12.98;;;5.18;;
58581;SDS011;44361;51.476;5.700;2023-07-31T08:18:30;12.93;;;5.78;;
58581;SDS011;44361;51.476;5.700;2023-07-31T08:20:56;13.57;;;5.90;;
58581;SDS011;44361;51.476;5.700;2023-07-31T08:23:22;11.65;;;5.90;;
58581;SDS011;44361;51.476;5.700;2023-07-31T08:25:47;8.90;;;5.72;;
58581;SDS011;44361;51.476;5.700;2023-07-31T08:28:14;8.10;;;5.20;;
58581;SDS011;44361;51.476;5.700;2023-07-31T08:30:40;11.68;;;5.25;;
58581;SDS011;44361;51.476;5.700;2023-07-31T08:33:06;10.25;;;5.00;;
58581;SDS011;44361;51.476;5.700;2023-07-31T08:35:32;10.70;;;5.05;;
58581;SDS011;44361;51.476;5.700;2023-07-31T08:37:57;11.32;;;5.47;;
58581;SDS011;44361;51.476;5.700;2023-07-31T08:40:23;9.55;;;4.90;;
58581;SDS011;44361;51.476;5.700;2023-07-31T08:42:49;9.48;;;5.07;;
58581;SDS011;44361;51.476;5.700;2023-07-31T08:45:18;7.10;;;4.50;;
58581;SDS011;44361;51.476;5.700;2023-07-31T08:47:48;8.27;;;4.75;;
58581;SDS011;44361;51.476;5.700;2023-07-31T08:50:16;9.32;;;4.97;;
58581;SDS011;44361;51.476;5.700;2023-07-31T08:52:42;10.52;;;4.78;;
58581;SDS011;44361;51.476;5.700;2023-07-31T08:55:08;7.70;;;4.50;;
58581;SDS011;44361;51.476;5.700;2023-07-31T08:57:35;10.90;;;4.57;;
58581;SDS011;44361;51.476;5.700;2023-07-31T09:00:03;8.35;;;4.90;;
58581;SDS011;44361;51.476;5.700;2023-07-31T09:02:52;14.55;;;5.20;;
58581;SDS011;44361;51.476;5.700;2023-07-31T09:05:32;13.73;;;5.85;;
58581;SDS011;44361;51.476;5.700;2023-07-31T09:07:58;8.35;;;4.97;;
58581;SDS011;44361;51.476;5.700;2023-07-31T09:10:25;12.23;;;4.75;;
58581;SDS011;44361;51.476;5.700;2023-07-31T09:12:51;16.08;;;5.88;;
58581;SDS011;44361;51.476;5.700;2023-07-31T09:15:17;8.38;;;4.60;;
58581;SDS011;44361;51.476;5.700;2023-07-31T09:17:43;10.55;;;4.78;;
58581;SDS011;44361;51.476;5.700;2023-07-31T09:20:15;11.45;;;5.50;;
58581;SDS011;44361;51.476;5.700;2023-07-31T09:22:43;13.57;;;5.63;;
58581;SDS011;44361;51.476;5.700;2023-07-31T09:25:25;11.93;;;5.53;;
58581;SDS011;44361;51.476;5.700;2023-07-31T09:27:53;16.10;;;5.32;;
58581;SDS011;44361;51.476;5.700;2023-07-31T09:30:20;13.13;;;5.45;;
58581;SDS011;44361;51.476;5.700;2023-07-31T09:32:46;9.70;;;5.25;;
58581;SDS011;44361;51.476;5.700;2023-07-31T09:35:28;11.13;;;5.03;;
58581;SDS011;44361;51.476;5.700;2023-07-31T09:37:55;11.00;;;4.60;;
58581;SDS011;44361;51.476;5.700;2023-07-31T09:42:57;10.40;;;5.03;;
58581;SDS011;44361;51.476;5.700;2023-07-31T09:45:24;10.02;;;4.25;;
58581;SDS011;44361;51.476;5.700;2023-07-31T09:47:50;9.82;;;4.82;;
58581;SDS011;44361;51.476;5.700;2023-07-31T09:50:16;8.07;;;4.00;;
58581;SDS011;44361;51.476;5.700;2023-07-31T09:52:42;9.18;;;4.43;;
58581;SDS011;44361;51.476;5.700;2023-07-31T09:55:08;7.00;;;4.30;;
58581;SDS011;44361;51.476;5.700;2023-07-31T09:57:37;8.00;;;3.85;;
58581;SDS011;44361;51.476;5.700;2023-07-31T10:00:10;7.95;;;4.10;;
58581;SDS011;44361;51.476;5.700;2023-07-31T10:02:38;8.82;;;3.97;;
58581;SDS011;44361;51.476;5.700;2023-07-31T10:05:04;8.25;;;4.35;;
58581;SDS011;44361;51.476;5.700;2023-07-31T10:07:34;8.25;;;4.13;;
58581;SDS011;44361;51.476;5.700;2023-07-31T10:10:03;11.32;;;4.18;;
58581;SDS011;44361;51.476;5.700;2023-07-31T10:12:31;6.18;;;3.53;;
58581;SDS011;44361;51.476;5.700;2023-07-31T10:14:58;9.18;;;3.13;;
58581;SDS011;44361;51.476;5.700;2023-07-31T10:17:24;8.40;;;3.38;;
58581;SDS011;44361;51.476;5.700;2023-07-31T10:19:51;7.10;;;3.88;;
58581;SDS011;44361;51.476;5.700;2023-07-31T10:22:19;13.60;;;4.10;;
58581;SDS011;44361;51.476;5.700;2023-07-31T10:24:46;6.95;;;3.60;;
58581;SDS011;44361;51.476;5.700;2023-07-31T10:27:13;10.73;;;3.80;;
58581;SDS011;44361;51.476;5.700;2023-07-31T10:29:39;8.98;;;4.03;;
58581;SDS011;44361;51.476;5.700;2023-07-31T10:32:06;11.85;;;3.63;;
58581;SDS011;44361;51.476;5.700;2023-07-31T10:34:35;7.95;;;3.70;;
58581;SDS011;44361;51.476;5.700;2023-07-31T10:37:20;6.18;;;3.13;;
58581;SDS011;44361;51.476;5.700;2023-07-31T10:43:07;8.10;;;3.47;;
58581;SDS011;44361;51.476;5.700;2023-07-31T10:45:24;7.03;;;3.60;;
58581;SDS011;44361;51.476;5.700;2023-07-31T10:48:04;7.22;;;3.05;;
58581;SDS011;44361;51.476;5.700;2023-07-31T10:50:32;7.15;;;3.47;;
58581;SDS011;44361;51.476;5.700;2023-07-31T10:53:02;5.03;;;3.13;;
58581;SDS011;44361;51.476;5.700;2023-07-31T10:55:32;6.38;;;3.17;;
58581;SDS011;44361;51.476;5.700;2023-07-31T10:58:13;6.40;;;3.17;;
58581;SDS011;44361;51.476;5.700;2023-07-31T11:00:39;5.68;;;3.35;;
58581;SDS011;44361;51.476;5.700;2023-07-31T11:03:10;6.90;;;3.40;;
58581;SDS011;44361;51.476;5.700;2023-07-31T11:05:45;7.78;;;3.15;;
58581;SDS011;44361;51.476;5.700;2023-07-31T11:08:15;5.95;;;2.90;;
58581;SDS011;44361;51.476;5.700;2023-07-31T11:10:48;4.32;;;2.72;;
58581;SDS011;44361;51.476;5.700;2023-07-31T11:13:16;8.38;;;2.88;;
58581;SDS011;44361;51.476;5.700;2023-07-31T11:15:42;7.43;;;3.05;;
58581;SDS011;44361;51.476;5.700;2023-07-31T11:18:07;5.43;;;2.47;;
58581;SDS011;44361;51.476;5.700;2023-07-31T11:20:35;4.95;;;2.28;;
58581;SDS011;44361;51.476;5.700;2023-07-31T11:23:02;9.05;;;2.80;;
58581;SDS011;44361;51.476;5.700;2023-07-31T11:25:30;8.85;;;2.80;;
58581;SDS011;44361;51.476;5.700;2023-07-31T11:27:57;5.30;;;2.72;;
58581;SDS011;44361;51.476;5.700;2023-07-31T11:30:30;7.32;;;2.45;;
58581;SDS011;44361;51.476;5.700;2023-07-31T11:32:56;4.55;;;2.80;;
58581;SDS011;44361;51.476;5.700;2023-07-31T11:35:22;4.97;;;2.85;;
58581;SDS011;44361;51.476;5.700;2023-07-31T11:37:47;6.35;;;2.97;;
58581;SDS011;44361;51.476;5.700;2023-07-31T11:40:13;4.88;;;3.10;;
58581;SDS011;44361;51.476;5.700;2023-07-31T11:42:39;5.95;;;2.90;;
58581;SDS011;44361;51.476;5.700;2023-07-31T11:45:06;4.18;;;2.17;;
58581;SDS011;44361;51.476;5.700;2023-07-31T11:47:33;7.35;;;2.95;;
58581;SDS011;44361;51.476;5.700;2023-07-31T11:50:00;8.40;;;2.67;;
58581;SDS011;44361;51.476;5.700;2023-07-31T11:52:27;6.47;;;2.88;;
58581;SDS011;44361;51.476;5.700;2023-07-31T11:54:57;4.40;;;2.58;;
58581;SDS011;44361;51.476;5.700;2023-07-31T11:57:22;4.18;;;2.40;;
58581;SDS011;44361;51.476;5.700;2023-07-31T11:59:49;5.05;;;2.30;;
58581;SDS011;44361;51.476;5.700;2023-07-31T12:02:15;5.15;;;2.20;;
58581;SDS011;44361;51.476;5.700;2023-07-31T12:04:42;4.18;;;2.58;;
58581;SDS011;44361;51.476;5.700;2023-07-31T12:07:08;4.93;;;2.20;;
58581;SDS011;44361;51.476;5.700;2023-07-31T12:09:34;6.28;;;2.75;;
58581;SDS011;44361;51.476;5.700;2023-07-31T12:11:59;6.20;;;2.60;;
58581;SDS011;44361;51.476;5.700;2023-07-31T12:14:26;8.55;;;2.60;;
58581;SDS011;44361;51.476;5.700;2023-07-31T12:16:56;5.28;;;2.47;;
58581;SDS011;44361;51.476;5.700;2023-07-31T12:19:24;5.22;;;2.42;;
58581;SDS011;44361;51.476;5.700;2023-07-31T12:21:55;7.05;;;2.88;;
58581;SDS011;44361;51.476;5.700;2023-07-31T12:24:21;6.63;;;2.80;;
58581;SDS011;44361;51.476;5.700;2023-07-31T12:26:46;7.53;;;2.72;;
58581;SDS011;44361;51.476;5.700;2023-07-31T12:29:21;7.15;;;3.08;;
58581;SDS011;44361;51.476;5.700;2023-07-31T12:31:47;8.07;;;2.67;;
58581;SDS011;44361;51.476;5.700;2023-07-31T12:34:16;13.30;;;2.80;;
58581;SDS011;44361;51.476;5.700;2023-07-31T12:36:43;5.50;;;2.90;;
58581;SDS011;44361;51.476;5.700;2023-07-31T12:39:08;7.40;;;2.88;;
58581;SDS011;44361;51.476;5.700;2023-07-31T12:41:34;5.60;;;3.40;;
58581;SDS011;44361;51.476;5.700;2023-07-31T12:44:00;6.85;;;3.63;;
58581;SDS011;44361;51.476;5.700;2023-07-31T12:46:25;7.28;;;4.05;;
58581;SDS011;44361;51.476;5.700;2023-07-31T12:48:51;5.28;;;3.33;;
58581;SDS011;44361;51.476;5.700;2023-07-31T12:51:16;7.53;;;3.72;;
58581;SDS011;44361;51.476;5.700;2023-07-31T12:53:42;7.15;;;3.90;;
58581;SDS011;44361;51.476;5.700;2023-07-31T12:56:08;9.25;;;4.43;;
58581;SDS011;44361;51.476;5.700;2023-07-31T12:58:33;8.25;;;4.13;;
58581;SDS011;44361;51.476;5.700;2023-07-31T13:00:59;8.88;;;3.53;;
58581;SDS011;44361;51.476;5.700;2023-07-31T13:03:25;9.38;;;4.22;;
58581;SDS011;44361;51.476;5.700;2023-07-31T13:05:50;6.75;;;3.45;;
58581;SDS011;44361;51.476;5.700;2023-07-31T13:08:17;8.18;;;3.83;;
58581;SDS011;44361;51.476;5.700;2023-07-31T13:10:42;7.28;;;4.03;;
58581;SDS011;44361;51.476;5.700;2023-07-31T13:13:09;9.75;;;4.03;;
58581;SDS011;44361;51.476;5.700;2023-07-31T13:15:35;11.32;;;3.80;;
58581;SDS011;44361;51.476;5.700;2023-07-31T13:18:00;7.97;;;3.70;;
58581;SDS011;44361;51.476;5.700;2023-07-31T13:20:26;5.47;;;3.50;;
58581;SDS011;44361;51.476;5.700;2023-07-31T13:22:52;9.10;;;3.78;;
58581;SDS011;44361;51.476;5.700;2023-07-31T13:25:17;9.43;;;4.07;;
58581;SDS011;44361;51.476;5.700;2023-07-31T13:27:43;10.10;;;4.28;;
58581;SDS011;44361;51.476;5.700;2023-07-31T13:30:08;10.05;;;4.18;;
58581;SDS011;44361;51.476;5.700;2023-07-31T13:32:34;9.70;;;3.80;;
58581;SDS011;44361;51.476;5.700;2023-07-31T13:35:03;7.97;;;3.88;;
58581;SDS011;44361;51.476;5.700;2023-07-31T13:37:33;12.02;;;4.22;;
58581;SDS011;44361;51.476;5.700;2023-07-31T13:39:59;7.90;;;3.80;;
58581;SDS011;44361;51.476;5.700;2023-07-31T13:42:25;8.52;;;4.07;;
58581;SDS011;44361;51.476;5.700;2023-07-31T13:44:50;12.20;;;4.63;;
58581;SDS011;44361;51.476;5.700;2023-07-31T13:47:17;8.73;;;4.15;;
58581;SDS011;44361;51.476;5.700;2023-07-31T13:49:42;10.55;;;4.18;;
58581;SDS011;44361;51.476;5.700;2023-07-31T13:52:08;8.60;;;4.30;;
58581;SDS011;44361;51.476;5.700;2023-07-31T13:54:34;10.80;;;4.40;;
58581;SDS011;44361;51.476;5.700;2023-07-31T13:56:59;7.70;;;3.92;;
58581;SDS011;44361;51.476;5.700;2023-07-31T13:59:25;9.95;;;3.83;;
58581;SDS011;44361;51.476;5.700;2023-07-31T14:01:50;7.93;;;3.70;;
58581;SDS011;44361;51.476;5.700;2023-07-31T14:04:16;8.25;;;3.50;;
58581;SDS011;44361;51.476;5.700;2023-07-31T14:06:42;11.75;;;3.55;;
58581;SDS011;44361;51.476;5.700;2023-07-31T14:09:08;7.85;;;3.95;;
58581;SDS011;44361;51.476;5.700;2023-07-31T14:11:34;11.15;;;4.05;;
58581;SDS011;44361;51.476;5.700;2023-07-31T14:13:59;8.90;;;4.43;;
58581;SDS011;44361;51.476;5.700;2023-07-31T14:16:27;9.73;;;4.90;;
58581;SDS011;44361;51.476;5.700;2023-07-31T14:18:53;10.60;;;4.90;;
58581;SDS011;44361;51.476;5.700;2023-07-31T14:21:19;9.77;;;5.20;;
58581;SDS011;44361;51.476;5.700;2023-07-31T14:23:44;11.80;;;5.80;;
58581;SDS011;44361;51.476;5.700;2023-07-31T14:26:10;11.02;;;5.60;;
58581;SDS011;44361;51.476;5.700;2023-07-31T14:28:36;14.38;;;5.45;;
58581;SDS011;44361;51.476;5.700;2023-07-31T14:31:01;12.45;;;4.90;;
58581;SDS011;44361;51.476;5.700;2023-07-31T14:33:27;13.38;;;5.32;;
58581;SDS011;44361;51.476;5.700;2023-07-31T14:35:53;11.63;;;5.78;;
58581;SDS011;44361;51.476;5.700;2023-07-31T14:38:19;13.35;;;5.25;;
58581;SDS011;44361;51.476;5.700;2023-07-31T14:40:44;14.90;;;5.82;;
58581;SDS011;44361;51.476;5.700;2023-07-31T14:43:10;13.00;;;5.38;;